createdAt,value
2023-05-04T00:06:19.829Z,102773.19
2023-05-04T00:16:41.378Z,102764.50
2023-05-04T00:27:02.980Z,102752.38
2023-05-04T00:37:24.491Z,102754.88
2023-05-04T00:47:45.883Z,102739.31
2023-05-04T00:58:08.085Z,102737.56
2023-05-04T01:08:31.684Z,102728.03
2023-05-04T01:18:53.130Z,102723.72
2023-05-04T01:29:20.703Z,102715.09
2023-05-04T01:39:42.039Z,102717.63
2023-05-04T01:50:04.423Z,102718.28
2023-05-04T02:00:26.743Z,102717.38
2023-05-04T02:10:48.198Z,102705.25
2023-05-04T02:21:09.554Z,102687.03
2023-05-04T02:31:31.071Z,102673.25
2023-05-04T02:41:52.431Z,102662.88
2023-05-04T02:52:13.873Z,102675.81
2023-05-04T03:02:35.303Z,102672.38
2023-05-04T03:12:56.759Z,102660.25
2023-05-04T03:23:18.144Z,102647.38
2023-05-04T03:33:39.549Z,102637.00
2023-05-04T03:44:00.896Z,102621.56
2023-05-04T03:54:22.245Z,102622.47
2023-05-04T04:04:43.628Z,102614.72
2023-05-04T04:15:05.166Z,102611.28
2023-05-04T04:25:26.706Z,102605.31
2023-05-04T04:35:48.215Z,102616.50
2023-05-04T04:46:09.741Z,102614.03
2023-05-04T04:56:31.154Z,102622.72
2023-05-04T05:06:54.174Z,102621.94
2023-05-04T05:17:15.598Z,102624.63
2023-05-04T05:27:37.114Z,102632.41
2023-05-04T05:37:58.561Z,102622.28
2023-05-04T05:48:19.908Z,102616.47
2023-05-04T05:58:41.621Z,102623.47
2023-05-04T06:09:03.001Z,102607.28
2023-05-04T06:19:24.556Z,102594.53
2023-05-04T06:29:46.625Z,102591.19
2023-05-04T06:40:08.729Z,102581.81
2023-05-04T06:50:30.689Z,102572.41
2023-05-04T07:00:52.908Z,102569.81
2023-05-04T07:11:14.402Z,102559.53
2023-05-04T07:21:35.807Z,102550.88
2023-05-04T07:31:57.221Z,102551.66
2023-05-04T07:42:18.716Z,102548.97
2023-05-04T07:52:40.076Z,102541.06
2023-05-04T08:03:01.512Z,102527.13
2023-05-04T08:13:23.040Z,102507.94
2023-05-04T08:23:44.451Z,102496.47
2023-05-04T08:34:06.267Z,102471.94
2023-05-04T08:44:29.146Z,102471.50
2023-05-04T08:54:53.085Z,102457.94
2023-05-04T09:05:14.729Z,102454.72
2023-05-04T09:15:36.314Z,102461.16
2023-05-04T09:25:57.670Z,102443.16
2023-05-04T09:36:20.939Z,102432.25
2023-05-04T09:46:42.539Z,102408.97
2023-05-04T09:57:14.062Z,102394.78
2023-05-04T10:07:36.240Z,102383.19
2023-05-04T10:18:17.907Z,102370.53
2023-05-04T10:28:39.354Z,102352.34
2023-05-04T10:39:00.840Z,102355.31
2023-05-04T10:49:47.897Z,102340.34
2023-05-04T11:00:09.741Z,102321.50
2023-05-04T11:10:31.197Z,102303.28
2023-05-04T11:20:52.568Z,102290.19
2023-05-04T11:31:14.668Z,102270.63
2023-05-04T11:41:36.506Z,102264.59
2023-05-04T11:52:10.355Z,102259.69
2023-05-04T12:02:31.893Z,102249.00
2023-05-04T12:12:53.484Z,102241.91
2023-05-04T12:23:14.865Z,102234.31
2023-05-04T12:33:36.378Z,102233.16
2023-05-04T12:43:57.861Z,102214.44
2023-05-04T12:54:19.276Z,102203.22
2023-05-04T13:04:40.750Z,102179.66
2023-05-04T13:15:02.145Z,102168.09
2023-05-04T13:25:23.557Z,102156.22
2023-05-04T13:35:44.967Z,102128.44
2023-05-04T13:46:06.398Z,102117.47
2023-05-04T13:56:27.758Z,102108.19
2023-05-04T14:06:49.898Z,102094.28
2023-05-04T14:17:11.832Z,102077.81
2023-05-04T14:27:36.121Z,102062.56
2023-05-04T14:37:57.543Z,102056.28
2023-05-04T14:48:18.976Z,102040.44
2023-05-04T14:58:41.170Z,102036.97
2023-05-04T15:09:03.493Z,102027.34
2023-05-04T15:19:24.884Z,102009.91
2023-05-04T15:29:46.672Z,102007.13
2023-05-04T15:40:08.567Z,101990.31
2023-05-04T15:50:31.097Z,101987.28
2023-05-04T16:00:54.600Z,101966.59
2023-05-04T16:11:16.171Z,101967.31
2023-05-04T16:21:37.571Z,101955.09
2023-05-04T16:31:58.946Z,101932.69
2023-05-04T16:42:21.603Z,101919.06
2023-05-04T16:52:43.620Z,101919.03
2023-05-04T17:03:05.099Z,101917.56
2023-05-04T17:13:26.935Z,101904.28
2023-05-04T17:23:48.309Z,101902.22
2023-05-04T17:34:09.770Z,101896.81
2023-05-04T17:44:32.948Z,101893.84
2023-05-04T17:54:54.332Z,101898.56
2023-05-04T18:05:15.837Z,101912.59
2023-05-04T18:15:37.283Z,101907.47
2023-05-04T18:25:58.641Z,101915.19
2023-05-04T18:36:20.148Z,101915.28
2023-05-04T18:46:41.865Z,101923.88
2023-05-04T18:57:03.430Z,101929.03
2023-05-04T19:07:24.865Z,101921.16
2023-05-04T19:17:46.407Z,101919.31
2023-05-04T19:28:11.757Z,101918.41
2023-05-04T19:38:33.232Z,101923.41
2023-05-04T19:48:54.629Z,101935.28
2023-05-04T19:59:16.035Z,101927.41
2023-05-04T20:09:37.433Z,101927.16
2023-05-04T20:19:58.849Z,101925.75
2023-05-04T20:30:20.261Z,101929.66
2023-05-04T20:40:41.726Z,101932.38
2023-05-04T20:51:13.959Z,101924.09
2023-05-04T21:01:36.384Z,101924.38
2023-05-04T21:11:58.431Z,101918.59
2023-05-04T21:22:19.802Z,101913.84
2023-05-04T21:32:41.250Z,101914.53
2023-05-04T21:43:02.786Z,101904.81
2023-05-04T21:53:24.356Z,101904.31
2023-05-04T22:03:45.915Z,101898.97
2023-05-04T22:14:07.312Z,101895.13
2023-05-04T22:24:28.766Z,101893.78
2023-05-04T22:34:50.191Z,101888.97
2023-05-04T22:45:15.075Z,101877.31
2023-05-04T22:55:36.481Z,101872.44
2023-05-04T23:06:00.880Z,101878.81
2023-05-04T23:16:22.292Z,101886.94
2023-05-04T23:26:43.705Z,101888.84
2023-05-04T23:37:05.057Z,101885.69
2023-05-04T23:47:26.421Z,101871.22
2023-05-04T23:57:47.770Z,101863.72
